Time;durP1;ratioP1;P1;durP2;ratioP2;P2;SDS_P1;SDS_P2;PMS_P1;PMS_P2;Temp;Humidity;BMP_temperature;BMP_pressure;BME280_temperature;BME280_humidity;BME280_pressure;Samples;Min_cycle;Max_cycle;Signal;HPM_P1;HPM_P2
2022/09/29 04:03:46;;;;;;;11.40;9.30;;;;;;;14.71;100.00;99047.84;5605474;31;80658;-58
2022/09/29 04:06:48;;;;;;;12.32;9.15;;;;;;;14.71;100.00;99047.84;5603159;31;33497;-58
2022/09/29 04:09:50;;;;;;;14.85;8.85;;;;;;;14.24;100.00;99042.94;5603520;31;33763;-58
2022/09/29 04:12:53;;;;;;;11.07;8.40;;;;;;;14.22;100.00;99043.25;5603364;31;33493;-58
2022/09/29 04:15:59;;;;;;;12.80;9.23;;;;;;;14.20;100.00;99045.47;5603667;31;34131;-58
2022/09/29 04:19:02;;;;;;;10.85;8.30;;;;;;;14.31;100.00;99040.44;5603148;31;33220;-58
2022/09/29 04:22:04;;;;;;;11.43;8.73;;;;;;;14.39;100.00;99042.22;5601216;31;33689;-58
2022/09/29 04:25:07;;;;;;;10.52;8.10;;;;;;;14.51;100.00;99039.56;5602543;31;33560;-58
2022/09/29 04:28:09;;;;;;;11.98;7.75;;;;;;;14.62;99.49;99041.81;5598478;31;33521;-58
2022/09/29 04:31:11;;;;;;;10.95;8.13;;;;;;;14.50;100.00;99031.78;5603434;31;34360;-58
2022/09/29 04:34:13;;;;;;;10.07;7.90;;;;;;;14.55;99.89;99040.44;5593089;31;33761;-58
2022/09/29 04:37:15;;;;;;;11.68;8.45;;;;;;;14.55;99.83;99037.75;5591757;31;33651;-58
2022/09/29 04:40:17;;;;;;;11.32;8.65;;;;;;;14.48;99.72;99042.91;5594170;31;34416;-58
2022/09/29 04:43:20;;;;;;;13.50;9.63;;;;;;;14.45;100.00;99040.09;5590868;31;33565;-58
2022/09/29 04:46:22;;;;;;;12.85;8.88;;;;;;;14.46;100.00;99037.06;5598777;31;33646;-58
2022/09/29 04:49:24;;;;;;;12.75;9.15;;;;;;;14.60;99.12;99044.03;5590267;31;34465;-58
2022/09/29 04:52:26;;;;;;;12.57;8.88;;;;;;;14.64;98.74;99042.25;5602742;31;34189;-58
2022/09/29 04:55:29;;;;;;;12.45;9.05;;;;;;;14.79;97.97;99036.91;5603123;31;33606;-58
2022/09/29 04:58:31;;;;;;;12.65;8.77;;;;;;;14.72;97.79;99044.81;5598011;31;34281;-56
2022/09/29 05:01:33;;;;;;;11.85;8.85;;;;;;;14.60;99.42;99047.50;5589343;31;33728;-56
2022/09/29 05:04:35;;;;;;;12.25;9.70;;;;;;;14.51;100.00;99054.97;5590069;31;33861;-55
2022/09/29 05:07:40;;;;;;;12.57;9.73;;;;;;;14.54;100.00;99048.91;5579260;31;33859;-55
2022/09/29 05:10:46;;;;;;;15.77;9.75;;;;;;;14.54;100.00;99049.69;5587216;31;33563;-56
2022/09/29 05:13:51;;;;;;;16.08;9.93;;;;;;;14.56;100.00;99046.63;5581019;31;33290;-56
2022/09/29 05:16:54;;;;;;;14.98;9.82;;;;;;;14.56;100.00;99043.94;5558261;31;33658;-59
2022/09/29 05:19:56;;;;;;;12.80;9.07;;;;;;;14.63;100.00;99051.44;5572529;31;34503;-58
2022/09/29 05:22:58;;;;;;;14.27;9.20;;;;;;;14.69;100.00;99050.09;5566395;31;33347;-57
2022/09/29 05:26:03;;;;;;;14.15;9.77;;;;;;;14.79;98.71;99047.72;5566304;31;33754;-57
2022/09/29 05:29:05;;;;;;;13.68;10.45;;;;;;;14.65;100.00;99049.22;5573649;31;33656;-57
2022/09/29 05:32:08;;;;;;;14.57;10.55;;;;;;;14.71;100.00;99047.84;5570559;31;33566;-57
2022/09/29 05:35:10;;;;;;;15.02;10.48;;;;;;;14.70;99.30;99055.16;5589018;31;33598;-57
2022/09/29 05:38:12;;;;;;;14.32;10.98;;;;;;;14.62;100.00;99052.59;5565848;31;34355;-58
2022/09/29 05:41:21;;;;;;;22.62;10.77;;;;;;;14.69;100.00;99055.50;5571046;31;34379;-57
2022/09/29 05:44:23;;;;;;;15.82;11.63;;;;;;;14.71;100.00;99064.81;5584477;31;34327;-57
2022/09/29 05:47:25;;;;;;;20.05;12.82;;;;;;;14.67;100.00;99063.13;5579116;31;33690;-58
2022/09/29 05:50:28;;;;;;;17.33;11.30;;;;;;;14.66;100.00;99058.88;5561129;31;33586;-58
2022/09/29 05:53:30;;;;;;;15.48;11.80;;;;;;;14.63;100.00;99070.34;5559548;31;33767;-57
2022/09/29 05:56:32;;;;;;;17.33;12.23;;;;;;;14.69;100.00;99075.16;5575574;31;34348;-57
2022/09/29 05:59:34;;;;;;;15.75;12.88;;;;;;;14.69;100.00;99080.56;5577176;31;33825;-58
2022/09/29 06:02:37;;;;;;;19.23;13.70;;;;;;;14.85;100.00;99082.56;5568718;32;33553;-57
2022/09/29 06:05:40;;;;;;;19.92;13.38;;;;;;;14.73;100.00;99086.84;5572187;31;34394;-57
2022/09/29 06:08:43;;;;;;;15.10;12.07;;;;;;;14.71;100.00;99083.72;5588564;31;34248;-58
2022/09/29 06:11:46;;;;;;;16.67;12.88;;;;;;;14.69;100.00;99093.25;5588684;31;33976;-58
2022/09/29 06:14:48;;;;;;;19.42;16.15;;;;;;;14.59;100.00;99096.41;5569960;31;33195;-57
2022/09/29 06:17:57;;;;;;;23.80;17.77;;;;;;;14.47;100.00;99097.97;5578039;31;33719;-57
2022/09/29 06:21:05;;;;;;;22.75;19.10;;;;;;;14.55;100.00;99099.78;5589033;31;33564;-58
2022/09/29 06:24:07;;;;;;;28.42;20.67;;;;;;;14.61;100.00;99088.78;5572058;31;33717;-58
2022/09/29 06:27:10;;;;;;;24.25;18.67;;;;;;;14.59;100.00;99091.03;5578655;31;33288;-57
2022/09/29 06:30:12;;;;;;;22.23;16.98;;;;;;;14.60;100.00;99096.06;5576147;31;33757;-57
2022/09/29 06:33:14;;;;;;;20.17;15.05;;;;;;;14.65;100.00;99098.53;5574933;31;33606;-57
2022/09/29 06:40:09;;;;;;;14.38;10.40;;;;;;;14.72;100.00;99106.06;5571814;31;33692;-58
2022/09/29 06:43:12;;;;;;;10.83;8.93;;;;;;;14.81;100.00;99112.13;5570016;31;33480;-57
2022/09/29 06:46:14;;;;;;;11.32;7.95;;;;;;;14.78;100.00;99116.28;5566135;31;33630;-57
2022/09/29 06:49:18;;;;;;;13.00;8.48;;;;;;;14.84;100.00;99116.84;5565584;31;33595;-58
2022/09/29 06:52:20;;;;;;;9.55;7.32;;;;;;;14.81;100.00;99122.94;5571702;31;33687;-57
2022/09/29 06:55:24;;;;;;;8.45;6.50;;;;;;;14.74;100.00;99120.00;5588610;31;33597;-57
2022/09/29 06:58:26;;;;;;;8.85;7.18;;;;;;;14.76;100.00;99121.22;5579956;31;33787;-58
2022/09/29 07:01:29;;;;;;;9.43;6.20;;;;;;;14.72;100.00;99120.34;5568003;31;33415;-57
2022/09/29 07:04:31;;;;;;;8.57;5.20;;;;;;;14.65;100.00;99124.72;5560796;32;33598;-58
2022/09/29 07:07:33;;;;;;;6.95;5.18;;;;;;;14.49;100.00;99122.66;5568991;32;33681;-57
2022/09/29 07:10:35;;;;;;;7.05;4.82;;;;;;;14.60;100.00;99111.47;5571445;31;33709;-57
2022/09/29 07:13:38;;;;;;;8.77;5.53;;;;;;;14.71;100.00;99113.38;5568432;32;34555;-57
2022/09/29 07:16:41;;;;;;;9.85;6.95;;;;;;;14.71;100.00;99115.28;5568465;32;34236;-57
2022/09/29 07:19:44;;;;;;;10.10;5.95;;;;;;;14.76;100.00;99123.94;5568753;32;33735;-57
2022/09/29 07:22:46;;;;;;;6.60;3.83;;;;;;;14.75;100.00;99126.97;5572445;31;33750;-57
2022/09/29 07:25:48;;;;;;;5.05;3.40;;;;;;;14.66;100.00;99129.78;5575806;31;33648;-57
2022/09/29 07:28:53;;;;;;;5.40;3.25;;;;;;;14.67;100.00;99130.56;5587961;31;34287;-57
2022/09/29 07:31:55;;;;;;;4.43;3.12;;;;;;;14.63;100.00;99135.84;5587835;31;33628;-57
2022/09/29 07:34:58;;;;;;;4.07;2.67;;;;;;;14.57;100.00;99143.38;5576021;31;33132;-57
2022/09/29 07:38:01;;;;;;;5.12;2.47;;;;;;;14.56;100.00;99146.41;5587100;31;34031;-57
2022/09/29 07:41:05;;;;;;;4.20;2.05;;;;;;;14.59;100.00;99147.66;5571415;31;33557;-57
2022/09/29 07:44:08;;;;;;;5.47;2.08;;;;;;;14.64;100.00;99147.44;5568087;32;34286;-57
2022/09/29 07:47:10;;;;;;;5.70;2.58;;;;;;;14.73;100.00;99158.88;5567312;31;34319;-57
2022/09/29 07:50:12;;;;;;;5.95;4.22;;;;;;;14.76;100.00;99163.59;5571164;31;33703;-57
2022/09/29 07:53:14;;;;;;;6.95;4.87;;;;;;;14.82;100.00;99169.56;5553544;31;33767;-57
2022/09/29 07:56:19;;;;;;;7.43;5.10;;;;;;;14.89;100.00;99170.56;5567990;31;34366;-58
2022/09/29 07:59:22;;;;;;;14.25;8.98;;;;;;;15.02;100.00;99168.66;5584320;31;33580;-57
2022/09/29 08:02:24;;;;;;;10.50;9.18;;;;;;;15.03;100.00;99171.03;5574041;31;33748;-57
2022/09/29 08:05:32;;;;;;;12.70;8.68;;;;;;;15.09;100.00;99174.28;5570539;31;33571;-57
2022/09/29 08:08:36;;;;;;;9.23;7.10;;;;;;;15.07;100.00;99176.53;5575639;31;33681;-57
2022/09/29 08:11:41;;;;;;;8.95;5.82;;;;;;;15.07;100.00;99176.53;5569993;31;33897;-58
2022/09/29 08:14:43;;;;;;;6.82;4.35;;;;;;;15.08;100.00;99185.41;5567786;32;33747;-58
2022/09/29 08:17:45;;;;;;;6.18;4.62;;;;;;;15.13;100.00;99188.69;5568078;32;33698;-57
2022/09/29 08:20:47;;;;;;;5.80;4.40;;;;;;;15.16;100.00;99182.56;5572376;31;34241;-57
2022/09/29 08:23:50;;;;;;;7.53;4.72;;;;;;;15.25;100.00;99169.75;5571945;31;33595;-57
2022/09/29 08:26:52;;;;;;;6.82;5.32;;;;;;;15.23;100.00;99185.53;5569356;31;33707;-57
2022/09/29 08:29:55;;;;;;;8.38;6.03;;;;;;;15.37;100.00;99179.75;5571339;31;33725;-57
2022/09/29 08:32:57;;;;;;;10.07;6.90;;;;;;;15.36;100.00;99190.88;5567532;32;33951;-58
2022/09/29 08:36:02;;;;;;;9.55;7.57;;;;;;;15.34;100.00;99179.66;5567339;32;33699;-58
2022/09/29 08:39:04;;;;;;;10.55;7.57;;;;;;;15.39;100.00;99188.28;5576826;31;34342;-57
2022/09/29 08:42:42;;;;;;;9.38;7.40;;;;;;;15.48;100.00;99198.97;5546493;31;33738;-57
2022/09/29 08:46:01;;;;;;;7.20;6.43;;;;;;;15.52;100.00;99195.22;5569098;31;33650;-57
2022/09/29 08:49:10;;;;;;;8.13;6.60;;;;;;;15.54;98.74;99197.59;5555297;32;33606;-57
2022/09/29 08:52:21;;;;;;;8.05;7.25;;;;;;;15.47;99.92;99189.28;5562515;31;33942;-57
2022/09/29 08:55:32;;;;;;;7.00;5.97;;;;;;;15.39;99.16;99196.38;5562260;31;33704;-58
2022/09/29 08:58:37;;;;;;;7.65;6.25;;;;;;;15.33;99.06;99203.16;5558475;32;33791;-57
2022/09/29 09:01:58;;;;;;;6.97;6.28;;;;;;;15.40;100.00;99205.28;5569813;32;33630;-57
2022/09/29 09:05:16;;;;;;;9.80;6.85;;;;;;;15.50;100.00;99205.59;5568352;32;33585;-57
2022/09/29 09:08:37;;;;;;;7.57;6.50;;;;;;;15.50;99.48;99207.53;5560819;31;34383;-57
2022/09/29 09:12:00;;;;;;;8.20;7.40;;;;;;;15.74;96.43;99210.16;5574571;31;33792;-57
2022/09/29 09:15:35;;;;;;;9.63;8.63;;;;;;;15.80;98.64;99218.06;5574420;31;33928;-57
2022/09/29 09:18:49;;;;;;;10.07;8.27;;;;;;;15.82;98.83;99215.78;5574147;31;34207;-57
2022/09/29 09:22:21;;;;;;;9.32;8.25;;;;;;;15.82;95.38;99221.19;5566283;32;33778;-57
2022/09/29 09:25:28;;;;;;;8.30;7.47;;;;;;;16.02;97.59;99214.78;5556942;31;33545;-57
2022/09/29 09:28:50;;;;;;;9.18;7.80;;;;;;;16.17;92.50;99222.16;5552174;31;33587;-58
2022/09/29 09:32:12;;;;;;;6.93;5.20;;;;;;;16.18;94.86;99229.13;5569573;31;33613;-57
2022/09/29 09:35:57;;;;;;;5.32;4.65;;;;;;;16.18;95.97;99231.06;5561207;31;33591;-57
2022/09/29 09:39:09;;;;;;;5.07;3.20;;;;;;;16.24;95.80;99228.91;5552199;31;33750;-57
2022/09/29 09:42:17;;;;;;;3.87;3.42;;;;;;;16.25;94.76;99238.56;5569611;32;34404;-57
2022/09/29 09:45:28;;;;;;;3.67;3.28;;;;;;;16.13;93.93;99232.09;5585704;31;33801;-57
2022/09/29 09:48:39;;;;;;;4.85;3.55;;;;;;;16.14;94.47;99232.88;5572240;31;34483;-57
2022/09/29 09:52:02;;;;;;;5.12;3.80;;;;;;;16.14;93.71;99233.66;5570738;31;33932;-58
2022/09/29 09:55:09;;;;;;;5.80;3.70;;;;;;;16.15;96.27;99239.84;5583102;31;33779;-57
2022/09/29 09:58:37;;;;;;;5.40;3.80;;;;;;;16.37;89.63;99238.50;5567512;31;34260;-57
2022/09/29 10:01:39;;;;;;;7.78;3.95;;;;;;;16.35;92.08;99235.34;5570954;31;33703;-57
2022/09/29 10:04:44;;;;;;;4.40;3.70;;;;;;;16.38;95.55;99242.78;5559552;31;33736;-57
2022/09/29 10:07:49;;;;;;;6.78;3.50;;;;;;;16.33;94.05;99224.91;5569593;32;33642;-58
2022/09/29 10:10:53;;;;;;;13.52;4.30;;;;;;;16.42;90.55;99222.84;5575924;31;33696;-58
2022/09/29 10:14:09;;;;;;;4.30;3.45;;;;;;;16.49;91.83;99218.72;5570588;31;34274;-58
2022/09/29 10:17:14;;;;;;;3.70;2.80;;;;;;;16.54;93.16;99224.66;5588037;31;33712;-57
2022/09/29 10:20:30;;;;;;;4.68;3.45;;;;;;;16.50;88.03;99236.53;5585521;31;33588;-57
2022/09/29 10:23:34;;;;;;;3.08;2.30;;;;;;;16.55;91.38;99236.25;5563618;31;34446;-58
2022/09/29 10:26:45;;;;;;;8.45;6.15;;;;;;;16.62;89.68;99233.72;5570683;31;34300;-57
2022/09/29 10:29:49;;;;;;;3.35;1.80;;;;;;;16.58;92.44;99230.16;5564564;31;34361;-57
2022/09/29 10:32:59;;;;;;;2.40;1.08;;;;;;;16.54;87.21;99242.81;5585065;31;33799;-58
2022/09/29 10:36:09;;;;;;;5.22;2.40;;;;;;;16.57;90.58;99232.09;5569095;31;33764;-57
2022/09/29 10:39:41;;;;;;;1.25;0.90;;;;;;;16.69;92.96;99239.34;5563805;31;34096;-58
2022/09/29 10:42:47;;;;;;;0.85;0.82;;;;;;;16.73;91.40;99234.81;5570138;31;33753;-57
2022/09/29 10:45:49;;;;;;;1.40;1.13;;;;;;;16.72;89.83;99241.34;5576000;31;33734;-57
2022/09/29 10:49:12;;;;;;;2.60;1.00;;;;;;;16.72;84.96;99243.25;5568791;31;35182;-57
2022/09/29 10:52:27;;;;;;;1.85;0.70;;;;;;;16.72;86.65;99233.25;5567283;31;33734;-57
2022/09/29 10:55:33;;;;;;;1.02;0.70;;;;;;;16.84;86.29;99241.28;5568843;31;33744;-58
2022/09/29 10:58:45;;;;;;;1.30;0.93;;;;;;;16.83;86.95;99239.72;5582388;31;33561;-57
2022/09/29 11:02:03;;;;;;;1.70;0.60;;;;;;;16.93;87.32;99237.63;5571660;31;33733;-57
2022/09/29 11:05:20;;;;;;;0.70;0.60;;;;;;;16.92;82.80;99242.25;5567077;31;33752;-57
2022/09/29 11:08:26;;;;;;;0.93;0.80;;;;;;;16.94;80.82;99252.72;5569105;32;33663;-57
2022/09/29 11:11:47;;;;;;;2.37;0.60;;;;;;;17.02;84.28;99249.84;5564419;32;34401;-57
2022/09/29 11:14:49;;;;;;;2.28;0.90;;;;;;;17.07;79.92;99244.16;5571405;31;33689;-57
2022/09/29 11:17:52;;;;;;;2.03;0.77;;;;;;;17.10;81.79;99243.47;5549257;32;33300;-57
2022/09/29 11:21:11;;;;;;;1.37;0.93;;;;;;;17.13;80.04;99244.69;5556183;31;34395;-57
2022/09/29 11:24:32;;;;;;;1.40;0.80;;;;;;;17.17;76.79;99248.25;5568864;32;33662;-57
2022/09/29 11:27:51;;;;;;;2.95;0.90;;;;;;;17.24;81.50;99248.41;5574353;31;34025;-57
2022/09/29 11:31:08;;;;;;;1.08;0.80;;;;;;;17.17;80.09;99252.88;5575602;31;33620;-57
2022/09/29 11:34:24;;;;;;;1.00;0.80;;;;;;;17.17;81.52;99247.47;5548698;32;33736;-57
2022/09/29 11:37:39;;;;;;;1.83;0.80;;;;;;;17.18;81.62;99247.09;5559779;31;33685;-57
2022/09/29 11:40:51;;;;;;;;;;;;;;;17.13;78.37;99244.69;5580665;31;34315;-57
2022/09/29 11:44:44;;;;;;;1.33;0.75;;;;;;;17.00;76.27;99245.91;5583350;31;34140;-57
2022/09/29 11:47:58;;;;;;;1.40;1.00;;;;;;;17.04;75.74;99254.91;5566896;31;34334;-57
2022/09/29 11:51:08;;;;;;;2.42;1.00;;;;;;;17.14;76.89;99260.56;5581466;31;34085;-57
2022/09/29 11:54:35;;;;;;;1.10;1.00;;;;;;;17.11;75.30;99261.25;5578573;31;33667;-57
2022/09/29 11:58:05;;;;;;;2.58;0.98;;;;;;;17.06;75.66;99264.25;5585401;31;31878;-57
2022/09/29 12:01:28;;;;;;;1.15;0.98;;;;;;;17.05;74.90;99267.28;5581886;31;33099;-57
2022/09/29 12:04:39;;;;;;;1.67;1.12;;;;;;;16.97;76.61;99276.41;5568709;31;33656;-57
2022/09/29 12:07:47;;;;;;;2.42;1.30;;;;;;;17.01;76.47;99274.56;5567941;32;33854;-57
2022/09/29 12:11:17;;;;;;;3.85;1.58;;;;;;;16.94;76.48;99277.87;5567942;32;34326;-57
2022/09/29 12:15:01;;;;;;;7.65;1.50;;;;;;;16.89;75.26;99280.84;5567951;32;33790;-57
2022/09/29 12:18:12;;;;;;;3.58;0.90;;;;;;;16.89;77.27;99289.75;5566688;32;33865;-57
2022/09/29 12:21:30;;;;;;;1.10;0.80;;;;;;;16.82;78.09;99281.47;5567809;32;33657;-57
2022/09/29 12:24:37;;;;;;;1.70;0.98;;;;;;;16.77;81.34;99270.09;5569461;32;33641;-57
2022/09/29 12:27:44;;;;;;;2.25;1.10;;;;;;;16.72;80.24;99273.03;5569179;32;33713;-57
2022/09/29 12:30:56;;;;;;;1.48;1.00;;;;;;;16.72;81.74;99273.84;5570135;32;33829;-57
2022/09/29 12:34:10;;;;;;;1.65;1.00;;;;;;;16.78;85.04;99285.97;5570334;32;34334;-57
2022/09/29 12:37:22;;;;;;;1.62;1.10;;;;;;;16.72;85.08;99284.66;5569711;32;33743;-57
2022/09/29 12:40:35;;;;;;;3.03;1.15;;;;;;;16.71;84.14;99272.25;5570261;32;34368;-57
2022/09/29 12:43:47;;;;;;;1.65;1.00;;;;;;;16.76;85.75;99276.66;5570141;32;34513;-57
2022/09/29 12:47:01;;;;;;;2.53;1.85;;;;;;;16.78;83.14;99277.06;5570189;32;34165;-57
2022/09/29 12:50:17;;;;;;;3.22;1.92;;;;;;;16.82;86.68;99294.19;5570207;32;33616;-57
2022/09/29 12:53:26;;;;;;;2.12;1.45;;;;;;;16.82;90.55;99307.72;5570164;32;34224;-57
2022/09/29 12:56:35;;;;;;;2.33;1.50;;;;;;;16.79;91.02;99309.22;5570391;32;34338;-57
2022/09/29 12:59:48;;;;;;;4.90;1.80;;;;;;;16.79;88.27;99311.94;5570607;32;33723;-57
2022/09/29 13:03:31;;;;;;;3.20;1.60;;;;;;;16.81;87.98;99317.75;5569642;32;34631;-57
2022/09/29 13:06:50;;;;;;;1.17;1.00;;;;;;;16.89;89.55;99308.72;5570190;32;33731;-57
2022/09/29 13:10:28;;;;;;;1.25;1.00;;;;;;;16.91;86.97;99319.16;5570233;32;33909;-57
2022/09/29 13:13:50;;;;;;;1.23;1.00;;;;;;;16.87;85.76;99302.84;5566421;32;33722;-57
2022/09/29 13:17:30;;;;;;;2.05;1.10;;;;;;;16.90;86.17;99296.72;5569368;32;33738;-57
2022/09/29 13:20:56;;;;;;;2.05;1.35;;;;;;;17.01;84.08;99288.88;5569956;32;33762;-57
2022/09/29 13:24:28;;;;;;;3.85;1.10;;;;;;;17.08;81.38;99299.09;5569978;32;33671;-57
2022/09/29 13:27:37;;;;;;;1.25;0.90;;;;;;;17.12;84.27;99300.75;5567048;32;33793;-57
2022/09/29 13:30:40;;;;;;;2.03;1.17;;;;;;;17.12;81.29;99300.75;5569862;32;33773;-57
2022/09/29 13:33:51;;;;;;;2.37;1.40;;;;;;;17.19;81.11;99302.06;5569759;32;33818;-57
2022/09/29 13:37:11;;;;;;;1.80;0.95;;;;;;;17.20;82.87;99298.22;5569949;32;33627;-57
2022/09/29 13:40:19;;;;;;;2.25;1.00;;;;;;;17.18;79.00;99301.28;5569880;32;32844;-57
2022/09/29 13:43:54;;;;;;;1.15;0.90;;;;;;;17.08;78.40;99302.56;5568663;32;33728;-57
2022/09/29 13:47:30;;;;;;;2.08;1.17;;;;;;;17.08;81.56;99297.16;5534609;31;34360;-57
2022/09/29 13:50:46;;;;;;;3.35;1.73;;;;;;;17.09;83.37;99306.09;5570019;32;33873;-57
2022/09/29 13:54:08;;;;;;;;;;;;;;;17.08;85.05;99304.50;5569277;32;33748;-58
2022/09/29 13:57:22;;;;;;;5.50;3.42;;;;;;;17.01;85.04;99315.94;5567858;32;33820;-57
2022/09/29 14:00:30;;;;;;;3.75;1.85;;;;;;;16.95;83.66;99308.44;5550159;32;34236;-57
2022/09/29 14:03:41;;;;;;;2.62;1.58;;;;;;;16.98;82.18;99305.81;5550281;32;33688;-57
2022/09/29 14:06:46;;;;;;;1.92;1.30;;;;;;;16.97;82.10;99311.59;5559319;32;34034;-57
2022/09/29 14:09:49;;;;;;;3.70;1.27;;;;;;;16.96;81.66;99318.16;5570028;32;33573;-57
2022/09/29 14:13:11;;;;;;;2.75;1.50;;;;;;;16.94;81.77;99320.41;5569847;32;33782;-57
2022/09/29 14:16:30;;;;;;;7.47;2.03;;;;;;;16.91;82.99;99316.47;5569913;32;34030;-57
2022/09/29 14:19:35;;;;;;;3.00;1.40;;;;;;;17.02;84.92;99316.72;5569750;32;34280;-57
2022/09/29 14:22:37;;;;;;;2.22;1.58;;;;;;;16.96;80.37;99320.84;5569489;32;33623;-57
2022/09/29 14:25:39;;;;;;;2.97;1.70;;;;;;;16.96;81.58;99326.28;5569691;32;34156;-57
2022/09/29 14:28:42;;;;;;;2.12;1.25;;;;;;;16.95;82.46;99321.97;5569424;32;33611;-57
2022/09/29 14:31:50;;;;;;;5.35;1.52;;;;;;;17.01;81.83;99328.69;5569717;32;34209;-57
2022/09/29 14:34:54;;;;;;;2.42;1.20;;;;;;;17.03;82.17;99327.22;5569736;32;33755;-57
2022/09/29 14:38:13;;;;;;;2.30;1.27;;;;;;;17.06;80.28;99345.47;5569303;32;34363;-57
2022/09/29 14:41:23;;;;;;;1.92;1.30;;;;;;;17.10;81.90;99346.34;5569602;32;34314;-57
2022/09/29 14:51:56;;;;;;;3.83;1.30;;;;;;;17.08;81.38;99351.31;5558328;32;34269;-57
2022/09/29 14:55:02;;;;;;;4.30;1.60;;;;;;;17.01;83.52;99364.69;5549938;32;33656;-57
2022/09/29 14:58:33;;;;;;;5.68;3.78;;;;;;;17.06;83.21;99358.25;5550061;32;34290;-57
2022/09/29 15:01:52;;;;;;;3.62;2.00;;;;;;;17.08;84.06;99353.25;5549892;32;34324;-57
2022/09/29 15:04:56;;;;;;;2.42;1.48;;;;;;;17.13;84.46;99348.38;5550023;32;34333;-57
2022/09/29 15:08:00;;;;;;;2.80;1.67;;;;;;;17.02;79.79;99360.84;5549613;32;33730;-57
2022/09/29 15:11:06;;;;;;;3.30;1.70;;;;;;;17.04;83.51;99357.78;5548814;32;34373;-57
2022/09/29 15:14:21;;;;;;;4.30;1.70;;;;;;;17.06;83.22;99361.72;5549691;32;33646;-57
2022/09/29 15:17:52;;;;;;;2.78;1.60;;;;;;;17.00;80.58;99354.22;5549817;32;33781;-57
2022/09/29 15:21:04;;;;;;;3.60;1.90;;;;;;;16.90;81.76;99355.50;5549960;32;34334;-57
2022/09/29 15:24:20;;;;;;;3.40;1.55;;;;;;;16.94;82.21;99359.09;5549809;32;33770;-57
2022/09/29 15:27:23;;;;;;;4.65;1.60;;;;;;;16.93;82.79;99364.88;5549565;32;34357;-57
2022/09/29 15:30:26;;;;;;;3.67;2.72;;;;;;;16.94;84.41;99355.59;5549871;32;33601;-57
2022/09/29 15:33:34;;;;;;;7.22;6.03;;;;;;;16.86;83.56;99362.75;5549686;32;33645;-57
2022/09/29 15:36:38;;;;;;;6.12;4.97;;;;;;;16.84;84.97;99367.72;5548615;32;34349;-57
2022/09/29 15:39:46;;;;;;;5.78;4.25;;;;;;;16.80;85.41;99370.31;5549625;32;33330;-57
2022/09/29 15:42:50;;;;;;;153.10;81.28;;;;;;;16.80;86.56;99375.75;5549479;32;33543;-57
2022/09/29 15:45:57;;;;;;;342.92;172.68;;;;;;;16.81;86.02;99371.13;5548926;32;33708;-57
